createdAt,value
2022-12-17T00:00:10.402Z,100613.34
2022-12-17T00:02:31.828Z,100607.09
2022-12-17T00:04:53.306Z,100617.66
2022-12-17T00:07:14.995Z,100626.78
2022-12-17T00:09:36.201Z,100625.09
2022-12-17T00:11:57.293Z,100634.00
2022-12-17T00:14:18.520Z,100631.53
2022-12-17T00:16:39.898Z,100631.91
2022-12-17T00:19:01.169Z,100631.91
2022-12-17T00:21:25.392Z,100629.03
2022-12-17T00:23:46.644Z,100626.97
2022-12-17T00:26:12.123Z,100625.09
2022-12-17T00:28:33.804Z,100625.31
2022-12-17T00:30:54.992Z,100625.94
2022-12-17T00:33:16.222Z,100626.16
2022-12-17T00:35:37.472Z,100634.22
2022-12-17T00:37:58.794Z,100629.22
2022-12-17T00:40:19.995Z,100636.66
2022-12-17T00:42:41.316Z,100646.22
2022-12-17T00:45:02.296Z,100651.78
2022-12-17T00:47:24.957Z,100662.53
2022-12-17T00:49:45.988Z,100656.72
2022-12-17T00:52:06.972Z,100668.34
2022-12-17T00:54:28.208Z,100666.66
2022-12-17T00:56:49.352Z,100645.38
2022-12-17T00:59:13.395Z,100642.47
2022-12-17T01:01:34.835Z,100653.44
2022-12-17T01:03:56.096Z,100641.84
2022-12-17T01:06:22.209Z,100657.34
2022-12-17T01:08:43.126Z,100662.72
2022-12-17T01:11:04.185Z,100665.81
2022-12-17T01:13:25.121Z,100669.97
2022-12-17T01:15:46.186Z,100654.06
2022-12-17T01:18:07.235Z,100658.59
2022-12-17T01:20:28.812Z,100670.38
2022-12-17T01:22:49.876Z,100671.19
2022-12-17T01:25:11.188Z,100674.31
2022-12-17T01:27:32.390Z,100680.53
2022-12-17T01:29:53.350Z,100666.44
2022-12-17T01:32:14.585Z,100661.28
2022-12-17T01:34:35.834Z,100658.38
2022-12-17T01:36:56.777Z,100660.25
2022-12-17T01:39:17.677Z,100665.81
2022-12-17T01:41:38.572Z,100676.78
2022-12-17T01:43:59.938Z,100665.19
2022-12-17T01:46:21.167Z,100672.22
2022-12-17T01:48:57.125Z,100662.28
2022-12-17T01:51:32.158Z,100667.66
2022-12-17T01:54:00.561Z,100664.78
2022-12-17T01:56:23.227Z,100664.97
2022-12-17T01:58:44.132Z,100658.16
2022-12-17T02:01:05.585Z,100664.97
2022-12-17T02:03:38.127Z,100667.66
2022-12-17T02:06:20.138Z,100669.72
2022-12-17T02:08:41.095Z,100673.25
2022-12-17T02:11:30.826Z,100668.09
2022-12-17T02:14:00.586Z,100672.19
2022-12-17T02:16:49.459Z,100673.25
2022-12-17T02:19:18.494Z,100679.22
2022-12-17T02:21:41.830Z,100680.47
2022-12-17T02:24:15.103Z,100687.50
2022-12-17T02:27:02.912Z,100679.22
2022-12-17T02:29:26.629Z,100672.63
2022-12-17T02:31:48.582Z,100672.63
2022-12-17T02:34:10.151Z,100673.47
2022-12-17T02:36:31.388Z,100673.03
2022-12-17T02:39:00.548Z,100675.72
2022-12-17T02:41:25.111Z,100675.94
2022-12-17T02:43:47.774Z,100684.00
2022-12-17T02:46:09.257Z,100692.69
2022-12-17T02:48:31.345Z,100686.50
2022-12-17T02:50:52.772Z,100679.03
2022-12-17T02:53:17.559Z,100689.16
2022-12-17T02:55:38.490Z,100684.38
2022-12-17T02:57:59.585Z,100678.00
2022-12-17T03:00:20.528Z,100674.69
2022-12-17T03:02:41.648Z,100664.34
2022-12-17T03:05:15.212Z,100656.88
2022-12-17T03:07:44.289Z,100660.59
2022-12-17T03:10:05.288Z,100663.28
2022-12-17T03:12:26.370Z,100656.69
2022-12-17T03:14:47.505Z,100654.81
2022-12-17T03:17:08.374Z,100644.91
2022-12-17T03:19:29.703Z,100650.91
2022-12-17T03:21:50.724Z,100651.72
2022-12-17T03:24:12.108Z,100657.28
2022-12-17T03:26:32.942Z,100655.00
2022-12-17T03:28:53.735Z,100651.66
2022-12-17T03:31:18.363Z,100648.31
2022-12-17T03:33:39.488Z,100659.66
2022-12-17T03:36:00.410Z,100655.34
2022-12-17T03:38:26.948Z,100662.13
2022-12-17T03:40:48.033Z,100657.59
2022-12-17T03:43:09.434Z,100675.16
2022-12-17T03:45:31.284Z,100675.97
2022-12-17T03:47:52.180Z,100675.78
2022-12-17T03:50:13.423Z,100690.03
2022-12-17T03:52:36.001Z,100677.41
2022-12-17T03:54:57.125Z,100671.88
2022-12-17T03:57:18.089Z,100669.19
2022-12-17T03:59:39.346Z,100667.94
2022-12-17T04:02:00.355Z,100664.22
2022-12-17T04:04:21.545Z,100666.72
2022-12-17T04:06:42.779Z,100655.97
2022-12-17T04:09:03.583Z,100654.75
2022-12-17T04:11:25.019Z,100660.75
2022-12-17T04:13:46.201Z,100660.94
2022-12-17T04:16:07.672Z,100650.81
2022-12-17T04:18:28.785Z,100646.69
2022-12-17T04:20:49.944Z,100648.72
2022-12-17T04:23:11.029Z,100650.78
2022-12-17T04:25:32.295Z,100647.28
2022-12-17T04:27:53.171Z,100647.47
2022-12-17T04:30:14.628Z,100647.88
2022-12-17T04:32:35.796Z,100658.00
2022-12-17T04:34:57.216Z,100654.66
2022-12-17T04:37:18.292Z,100652.84
2022-12-17T04:39:39.612Z,100650.34
2022-12-17T04:42:00.776Z,100652.22
2022-12-17T04:44:22.276Z,100651.34
2022-12-17T04:46:43.360Z,100640.84
2022-12-17T04:49:04.747Z,100637.31
2022-12-17T04:51:25.979Z,100635.66
2022-12-17T04:54:07.073Z,100616.22
2022-12-17T04:56:28.012Z,100617.25
2022-12-17T04:58:49.140Z,100618.28
2022-12-17T05:01:11.190Z,100623.41
2022-12-17T05:03:35.064Z,100625.47
2022-12-17T05:05:56.774Z,100624.47
2022-12-17T05:08:18.092Z,100614.53
2022-12-17T05:10:39.452Z,100612.91
2022-12-17T05:13:00.501Z,100609.38
2022-12-17T05:15:21.855Z,100611.84
2022-12-17T05:17:42.854Z,100614.53
2022-12-17T05:20:04.435Z,100611.66
2022-12-17T05:22:25.788Z,100619.72
2022-12-17T05:24:46.920Z,100616.19
2022-12-17T05:27:07.823Z,100613.50
2022-12-17T05:29:29.130Z,100620.34
2022-12-17T05:31:50.422Z,100623.03
2022-12-17T05:34:11.208Z,100632.75
2022-12-17T05:36:32.357Z,100631.09
2022-12-17T05:38:53.271Z,100626.78
2022-12-17T05:41:16.657Z,100631.94
2022-12-17T05:43:38.077Z,100622.25
2022-12-17T05:46:00.668Z,100636.50
2022-12-17T05:48:21.614Z,100638.56
2022-12-17T05:50:42.502Z,100638.97
2022-12-17T05:53:03.842Z,100630.69
2022-12-17T05:55:25.380Z,100637.31
2022-12-17T05:57:50.486Z,100645.59
2022-12-17T06:00:14.089Z,100639.41
2022-12-17T06:02:35.143Z,100635.25
2022-12-17T06:05:01.969Z,100652.00
2022-12-17T06:07:25.006Z,100656.34
2022-12-17T06:09:46.103Z,100657.59
2022-12-17T06:12:07.125Z,100660.91
2022-12-17T06:14:28.392Z,100658.03
2022-12-17T06:16:49.362Z,100665.47
2022-12-17T06:19:10.645Z,100670.44
2022-12-17T06:21:31.571Z,100672.53
2022-12-17T06:23:52.588Z,100676.66
2022-12-17T06:26:15.088Z,100688.28
2022-12-17T06:28:36.266Z,100669.09
2022-12-17T06:30:57.478Z,100680.03
2022-12-17T06:33:24.120Z,100680.25
2022-12-17T06:35:46.351Z,100678.84
2022-12-17T06:38:07.400Z,100676.78
2022-12-17T06:40:29.123Z,100678.22
2022-12-17T06:42:50.039Z,100683.81
2022-12-17T06:45:11.062Z,100677.22
2022-12-17T06:47:32.068Z,100674.97
2022-12-17T06:49:57.966Z,100679.47
2022-12-17T06:52:22.206Z,100673.09
2022-12-17T06:54:43.498Z,100671.25
2022-12-17T06:57:04.433Z,100679.53
2022-12-17T06:59:25.827Z,100685.09
2022-12-17T07:01:48.050Z,100670.63
2022-12-17T07:04:09.399Z,100667.94
2022-12-17T07:09:45.014Z,100674.94
2022-12-17T07:12:06.077Z,100675.16
2022-12-17T07:14:26.997Z,100674.94
2022-12-17T07:16:48.044Z,100678.06
2022-12-17T07:19:09.296Z,100670.63
2022-12-17T07:21:30.201Z,100673.72
2022-12-17T07:23:51.535Z,100671.03
2022-12-17T07:26:12.812Z,100665.25
2022-12-17T07:28:34.119Z,100666.50
2022-12-17T07:30:55.931Z,100665.69
2022-12-17T07:33:21.113Z,100671.88
2022-12-17T07:35:42.454Z,100676.84
2022-12-17T07:38:03.393Z,100670.63
2022-12-17T07:40:25.200Z,100675.63
2022-12-17T07:42:46.201Z,100666.72
2022-12-17T07:45:07.204Z,100664.03
2022-12-17T07:47:28.125Z,100671.69
2022-12-17T07:49:49.065Z,100666.06
2022-12-17T07:52:10.352Z,100662.16
2022-12-17T07:54:31.475Z,100665.91
2022-12-17T07:56:52.603Z,100659.69
2022-12-17T07:59:13.906Z,100660.28
2022-12-17T08:01:35.548Z,100664.84
2022-12-17T08:03:56.982Z,100663.81
2022-12-17T08:06:18.535Z,100656.34
2022-12-17T08:08:39.424Z,100661.97
2022-12-17T08:11:07.544Z,100651.19
2022-12-17T08:13:28.440Z,100658.44
2022-12-17T08:15:50.980Z,100652.63
2022-12-17T08:18:22.925Z,100655.50
2022-12-17T08:20:47.493Z,100644.97
2022-12-17T08:23:08.565Z,100638.09
2022-12-17T08:25:30.135Z,100632.31
2022-12-17T08:27:51.057Z,100631.69
2022-12-17T08:30:12.104Z,100627.09
2022-12-17T08:32:33.569Z,100631.84
2022-12-17T08:34:54.834Z,100630.19
2022-12-17T08:37:15.924Z,100634.72
2022-12-17T08:39:36.828Z,100629.72
2022-12-17T08:42:03.934Z,100634.28
2022-12-17T08:44:25.735Z,100636.56
2022-12-17T08:47:00.614Z,100626.84
2022-12-17T08:49:22.142Z,100629.09
2022-12-17T08:51:44.333Z,100627.25
2022-12-17T08:54:05.603Z,100612.13
2022-12-17T08:56:26.617Z,100620.38
2022-12-17T08:58:47.859Z,100623.09
2022-12-17T09:01:10.798Z,100621.66
2022-12-17T09:03:31.903Z,100622.09
2022-12-17T09:05:53.314Z,100615.69
2022-12-17T09:08:22.538Z,100596.00
2022-12-17T09:10:43.541Z,100601.38
2022-12-17T09:13:05.296Z,100597.03
2022-12-17T09:15:26.908Z,100591.84
2022-12-17T09:17:48.073Z,100583.78
2022-12-17T09:20:09.253Z,100581.69
2022-12-17T09:22:30.366Z,100585.84
2022-12-17T09:24:51.598Z,100582.13
2022-12-17T09:27:12.720Z,100584.63
2022-12-17T09:29:33.737Z,100578.59
2022-12-17T09:31:54.931Z,100576.09
2022-12-17T09:34:16.077Z,100575.66
2022-12-17T09:36:37.282Z,100579.81
2022-12-17T09:38:58.465Z,100579.41
2022-12-17T09:41:46.412Z,100580.69
2022-12-17T09:44:21.765Z,100581.69
2022-12-17T09:46:45.831Z,100574.25
2022-12-17T09:49:12.850Z,100577.13
2022-12-17T09:51:45.976Z,100568.69
2022-12-17T09:54:12.134Z,100571.84
2022-12-17T09:56:34.438Z,100561.50
2022-12-17T09:58:58.129Z,100564.84
2022-12-17T10:01:23.634Z,100549.94
2022-12-17T10:03:45.871Z,100549.31
2022-12-17T10:06:08.475Z,100544.38
2022-12-17T10:08:37.084Z,100544.38
2022-12-17T10:11:03.657Z,100535.03
2022-12-17T10:13:36.170Z,100525.28
2022-12-17T10:16:00.447Z,100528.41
2022-12-17T10:18:45.985Z,100529.88
2022-12-17T10:21:15.541Z,100538.19
2022-12-17T10:23:50.620Z,100530.50
2022-12-17T10:26:14.131Z,100515.00
2022-12-17T10:28:41.321Z,100512.94
2022-12-17T10:31:02.414Z,100512.56
2022-12-17T10:33:40.039Z,100509.44
2022-12-17T10:36:01.354Z,100507.81
2022-12-17T10:38:46.637Z,100498.50
2022-12-17T10:41:07.613Z,100496.41
2022-12-17T10:43:53.850Z,100499.31
2022-12-17T10:46:16.368Z,100488.16
2022-12-17T10:48:50.345Z,100487.09
2022-12-17T10:51:12.524Z,100477.41
2022-12-17T10:53:52.262Z,100461.91
2022-12-17T10:56:16.368Z,100473.25
2022-12-17T10:58:48.055Z,100460.44
2022-12-17T11:01:17.877Z,100459.41
2022-12-17T11:03:44.795Z,100455.88
2022-12-17T11:06:10.501Z,100452.38
2022-12-17T11:08:34.898Z,100443.50
2022-12-17T11:11:02.007Z,100448.88
2022-12-17T11:13:29.458Z,100447.84
2022-12-17T11:16:06.088Z,100450.34
2022-12-17T11:18:36.434Z,100447.03
2022-12-17T11:21:14.271Z,100448.69
2022-12-17T11:23:38.406Z,100446.63
2022-12-17T11:26:24.003Z,100444.16
2022-12-17T11:28:51.015Z,100443.31
2022-12-17T11:31:21.781Z,100445.41
2022-12-17T11:33:56.267Z,100440.44
2022-12-17T11:36:51.496Z,100436.94
2022-12-17T11:39:24.604Z,100419.16
2022-12-17T11:41:57.809Z,100411.72
2022-12-17T11:44:49.599Z,100413.38
2022-12-17T11:47:13.586Z,100408.44
2022-12-17T11:49:56.429Z,100392.94
2022-12-17T11:52:29.329Z,100396.44
2022-12-17T11:55:02.403Z,100402.44
2022-12-17T11:57:42.905Z,100401.00
2022-12-17T12:00:04.500Z,100404.31
2022-12-17T12:03:07.788Z,100405.13
2022-12-17T12:05:34.845Z,100407.81
2022-12-17T12:08:21.233Z,100399.94
2022-12-17T12:11:10.349Z,100380.31
2022-12-17T12:13:58.572Z,100372.47
2022-12-17T12:16:42.066Z,100365.66
2022-12-17T12:19:13.545Z,100354.28
2022-12-17T12:21:57.993Z,100364.63
2022-12-17T12:24:40.877Z,100366.47
2022-12-17T12:27:39.140Z,100362.13
2022-12-17T12:30:08.989Z,100363.81
2022-12-17T12:32:47.192Z,100352.44
2022-12-17T12:35:11.253Z,100354.28
2022-12-17T12:37:35.908Z,100338.59
2022-12-17T12:40:02.610Z,100343.56
2022-12-17T12:42:50.433Z,100349.34
2022-12-17T12:45:46.683Z,100345.81
2022-12-17T12:48:43.307Z,100327.44
2022-12-17T12:51:11.831Z,100343.75
2022-12-17T12:53:33.938Z,100334.88
2022-12-17T12:56:01.724Z,100329.53
2022-12-17T12:58:50.807Z,100323.09
2022-12-17T13:01:15.988Z,100310.09
2022-12-17T13:03:55.491Z,100308.22
2022-12-17T13:05:58.340Z,100301.00
2022-12-17T13:08:25.365Z,100301.84
2022-12-17T13:10:30.706Z,100296.47
2022-12-17T13:12:49.557Z,100289.22
2022-12-17T13:15:07.280Z,100284.88
2022-12-17T13:17:18.803Z,100292.72
2022-12-17T13:19:36.706Z,100293.16
2022-12-17T13:21:39.291Z,100295.44
2022-12-17T13:23:42.236Z,100299.75
2022-12-17T13:25:44.964Z,100287.78
2022-12-17T13:27:48.676Z,100288.41
2022-12-17T13:29:51.291Z,100279.94
2022-12-17T13:32:17.258Z,100282.41
2022-12-17T13:34:37.811Z,100282.81
2022-12-17T13:36:57.942Z,100269.19
2022-12-17T13:39:06.273Z,100271.25
2022-12-17T13:41:14.626Z,100272.91
2022-12-17T13:43:20.153Z,100269.63
2022-12-17T13:45:26.077Z,100261.97
2022-12-17T13:47:31.891Z,100254.75
2022-12-17T13:49:34.494Z,100258.47
2022-12-17T13:51:37.301Z,100254.31
2022-12-17T13:53:39.836Z,100268.19
2022-12-17T13:55:51.316Z,100275.38
2022-12-17T13:57:54.408Z,100267.34
2022-12-17T14:00:02.660Z,100274.38
2022-12-17T14:02:22.933Z,100275.59
2022-12-17T14:04:28.035Z,100272.31
2022-12-17T14:06:36.922Z,100255.56
2022-12-17T14:08:40.782Z,100273.31
2022-12-17T14:11:15.167Z,100270.63
2022-12-17T14:13:18.396Z,100265.25
2022-12-17T14:15:32.285Z,100260.13
2022-12-17T14:17:41.672Z,100257.81
2022-12-17T14:19:44.497Z,100249.16
2022-12-17T14:21:47.671Z,100262.19
2022-12-17T14:23:52.196Z,100277.88
2022-12-17T14:25:55.049Z,100286.75
2022-12-17T14:28:03.792Z,100284.88
2022-12-17T14:30:22.539Z,100294.78
2022-12-17T14:32:37.596Z,100297.50
2022-12-17T14:34:43.311Z,100291.69
2022-12-17T14:36:47.035Z,100296.84
2022-12-17T14:38:57.042Z,100290.66
2022-12-17T14:41:32.805Z,100287.97
2022-12-17T14:43:35.449Z,100281.16
2022-12-17T14:45:58.085Z,100278.69
2022-12-17T14:48:04.460Z,100274.56
2022-12-17T14:50:23.947Z,100284.44
2022-12-17T14:52:57.519Z,100277.00
2022-12-17T14:55:00.561Z,100272.06
2022-12-17T14:57:06.209Z,100259.25
2022-12-17T14:59:38.205Z,100259.69
2022-12-17T15:01:40.898Z,100250.56
2022-12-17T15:03:48.766Z,100266.47
2022-12-17T15:06:07.372Z,100266.06
2022-12-17T15:08:11.731Z,100261.09
2022-12-17T15:10:19.132Z,100257.56
2022-12-17T15:12:23.586Z,100250.13
2022-12-17T15:14:26.192Z,100248.31
2022-12-17T15:16:29.283Z,100241.47
2022-12-17T15:18:32.995Z,100236.94
2022-12-17T15:20:36.347Z,100236.09
2022-12-17T15:22:39.281Z,100225.34
2022-12-17T15:24:42.237Z,100215.84
2022-12-17T15:26:45.096Z,100215.44
2022-12-17T15:28:47.856Z,100195.22
2022-12-17T15:30:50.688Z,100192.72
2022-12-17T15:32:53.370Z,100192.09
2022-12-17T15:34:57.093Z,100186.91
2022-12-17T15:36:59.764Z,100183.63
2022-12-17T15:39:02.452Z,100174.13
2022-12-17T15:41:26.510Z,100176.59
2022-12-17T15:43:30.414Z,100176.41
2022-12-17T15:45:33.410Z,100180.72
2022-12-17T15:47:36.449Z,100182.34
2022-12-17T15:49:39.150Z,100187.50
2022-12-17T15:51:41.715Z,100195.56
2022-12-17T15:53:44.289Z,100176.97
2022-12-17T15:55:46.891Z,100170.56
2022-12-17T15:57:49.430Z,100162.91
2022-12-17T15:59:52.211Z,100163.34
2022-12-17T16:01:54.839Z,100158.00
2022-12-17T16:03:58.044Z,100154.69
2022-12-17T16:06:01.895Z,100147.06
2022-12-17T16:08:04.695Z,100138.56
2022-12-17T16:10:07.537Z,100127.44
2022-12-17T16:12:10.402Z,100122.69
2022-12-17T16:14:13.070Z,100114.84
2022-12-17T16:16:15.876Z,100116.69
2022-12-17T16:18:18.512Z,100115.88
2022-12-17T16:20:21.093Z,100104.09
2022-12-17T16:22:23.890Z,100114.84
2022-12-17T16:24:26.945Z,100123.50
2022-12-17T16:26:29.527Z,100114.84
2022-12-17T16:28:32.962Z,100119.16
2022-12-17T16:30:35.576Z,100119.75
2022-12-17T16:32:38.744Z,100114.41
2022-12-17T16:34:44.134Z,100114.63
2022-12-17T16:36:46.757Z,100120.00
2022-12-17T16:38:52.900Z,100120.81
2022-12-17T16:41:00.092Z,100112.16
2022-12-17T16:43:02.723Z,100112.34
2022-12-17T16:45:06.160Z,100109.06
2022-12-17T16:47:10.462Z,100104.09
2022-12-17T16:49:18.556Z,100099.09
2022-12-17T16:51:28.547Z,100087.53
2022-12-17T16:53:32.034Z,100101.38
2022-12-17T16:55:41.001Z,100099.09
2022-12-17T16:57:43.538Z,100103.66
2022-12-17T16:59:46.168Z,100105.72
2022-12-17T17:01:50.689Z,100107.38
2022-12-17T17:03:53.713Z,100102.84
2022-12-17T17:06:01.118Z,100106.78
2022-12-17T17:08:04.713Z,100110.50
2022-12-17T17:10:07.512Z,100110.88
2022-12-17T17:12:12.043Z,100113.78
2022-12-17T17:14:14.757Z,100111.09
2022-12-17T17:16:19.446Z,100100.59
2022-12-17T17:18:24.749Z,100101.41
2022-12-17T17:20:27.724Z,100100.34
2022-12-17T17:22:30.250Z,100102.03
2022-12-17T17:24:32.812Z,100101.78
2022-12-17T17:26:35.973Z,100099.09
2022-12-17T17:28:39.116Z,100101.56
2022-12-17T17:30:42.264Z,100087.34
2022-12-17T17:32:44.970Z,100086.50
2022-12-17T17:34:47.622Z,100084.44
2022-12-17T17:36:50.173Z,100079.06
2022-12-17T17:38:57.182Z,100077.41
2022-12-17T17:40:59.762Z,100065.03
2022-12-17T17:43:02.339Z,100063.34
2022-12-17T17:45:05.167Z,100054.94
2022-12-17T17:47:08.026Z,100061.91
2022-12-17T17:49:12.000Z,100060.03
2022-12-17T17:51:39.032Z,100053.44
2022-12-17T17:53:48.055Z,100060.69
2022-12-17T17:55:50.532Z,100050.34
2022-12-17T17:57:53.228Z,100053.84
2022-12-17T17:59:55.864Z,100045.56
2022-12-17T18:01:58.513Z,100035.66
2022-12-17T18:04:06.010Z,100026.53
2022-12-17T18:06:11.625Z,100027.19
2022-12-17T18:08:15.405Z,100019.53
2022-12-17T18:10:18.065Z,100023.25
2022-12-17T18:12:39.351Z,100027.78
2022-12-17T18:14:46.670Z,100024.28
2022-12-17T18:17:00.558Z,100022.81
2022-12-17T18:19:20.501Z,100022.00
2022-12-17T18:21:24.191Z,100011.47
2022-12-17T18:23:26.867Z,100006.72
2022-12-17T18:25:32.886Z,100003.56
2022-12-17T18:27:40.303Z,99985.22
2022-12-17T18:29:42.940Z,99989.13
2022-12-17T18:31:51.536Z,99994.25
2022-12-17T18:33:58.903Z,99989.94
2022-12-17T18:36:01.461Z,99993.66
2022-12-17T18:38:04.146Z,99994.25
2022-12-17T18:40:07.829Z,99996.34
2022-12-17T18:42:28.789Z,99995.69
2022-12-17T18:44:32.455Z,99996.94
2022-12-17T18:46:35.822Z,100001.28
2022-12-17T18:48:38.863Z,99996.28
2022-12-17T18:50:41.787Z,99999.59
2022-12-17T18:52:44.350Z,99992.34
2022-12-17T18:54:46.871Z,99988.38
2022-12-17T18:57:01.018Z,99977.63
2022-12-17T18:59:04.983Z,99983.84
2022-12-17T19:01:08.274Z,99984.06
2022-12-17T19:03:11.241Z,99978.91
2022-12-17T19:05:14.000Z,99978.66
2022-12-17T19:07:16.552Z,99972.00
2022-12-17T19:09:25.188Z,99972.22
2022-12-17T19:11:28.397Z,99969.53
2022-12-17T19:13:31.389Z,99969.31
2022-12-17T19:15:36.069Z,99961.69
2022-12-17T19:17:38.890Z,99967.25
2022-12-17T19:19:41.422Z,99979.00
2022-12-17T19:21:44.817Z,99975.91
2022-12-17T19:23:48.587Z,99983.53
2022-12-17T19:25:51.167Z,99972.31
2022-12-17T19:27:53.913Z,99968.38
2022-12-17T19:29:57.288Z,99968.75
2022-12-17T19:32:00.610Z,99964.66
2022-12-17T19:34:05.728Z,99974.94
2022-12-17T19:36:14.181Z,99979.72
2022-12-17T19:38:16.784Z,99981.59
2022-12-17T19:40:19.420Z,99982.41
2022-12-17T19:42:25.161Z,99971.66
2022-12-17T19:44:27.934Z,99968.75
2022-12-17T19:46:32.209Z,99964.41
2022-12-17T19:48:37.215Z,99956.13
2022-12-17T19:50:40.204Z,99956.94
2022-12-17T19:52:42.764Z,99951.41
2022-12-17T19:54:45.317Z,99948.72
2022-12-17T19:56:47.924Z,99953.06
2022-12-17T19:58:53.224Z,99957.19
2022-12-17T20:00:55.841Z,99957.75
2022-12-17T20:02:58.706Z,99951.56
2022-12-17T20:05:01.337Z,99961.31
2022-12-17T20:07:04.097Z,99940.97
2022-12-17T20:09:07.451Z,99946.34
2022-12-17T20:11:30.689Z,99940.97
2022-12-17T20:13:33.217Z,99933.97
2022-12-17T20:15:35.888Z,99930.22
2022-12-17T20:17:38.487Z,99929.19
2022-12-17T20:19:42.280Z,99928.13
2022-12-17T20:21:44.869Z,99930.63
2022-12-17T20:23:48.722Z,99924.19
2022-12-17T20:26:01.934Z,99911.34
2022-12-17T20:28:04.917Z,99917.97
2022-12-17T20:30:08.092Z,99915.28
2022-12-17T20:32:10.778Z,99917.97
2022-12-17T20:34:15.982Z,99918.19
2022-12-17T20:36:20.037Z,99921.28
2022-12-17T20:38:23.024Z,99933.09
2022-12-17T20:40:25.649Z,99930.81
2022-12-17T20:42:28.197Z,99919.47
2022-12-17T20:44:30.847Z,99920.47
2022-12-17T20:46:34.224Z,99911.34
2022-12-17T20:48:39.157Z,99914.41
2022-12-17T20:50:42.007Z,99905.75
2022-12-17T20:52:44.588Z,99907.38
2022-12-17T20:54:47.169Z,99904.47
2022-12-17T20:56:50.115Z,99899.09
2022-12-17T20:58:54.979Z,99901.78
2022-12-17T21:01:07.690Z,99895.75
2022-12-17T21:03:10.742Z,99901.94
2022-12-17T21:05:13.579Z,99896.56
2022-12-17T21:07:16.170Z,99901.25
2022-12-17T21:09:20.501Z,99896.94
2022-12-17T21:11:26.076Z,99895.88
2022-12-17T21:13:31.755Z,99894.25
2022-12-17T21:15:34.346Z,99881.84
2022-12-17T21:17:36.867Z,99888.41
2022-12-17T21:19:39.382Z,99879.75
2022-12-17T21:21:42.248Z,99874.00
2022-12-17T21:23:45.588Z,99879.16
2022-12-17T21:25:48.361Z,99875.56
2022-12-17T21:27:51.074Z,99887.00
2022-12-17T21:29:53.993Z,99881.41
2022-12-17T21:31:56.652Z,99874.16
2022-12-17T21:34:03.160Z,99870.66
2022-12-17T21:36:07.899Z,99873.09
2022-12-17T21:38:10.943Z,99874.38
2022-12-17T21:40:13.737Z,99872.94
2022-12-17T21:42:35.002Z,99874.81
2022-12-17T21:44:37.718Z,99876.31
2022-12-17T21:46:40.892Z,99872.00
2022-12-17T21:48:44.077Z,99860.78
2022-12-17T21:50:47.087Z,99870.47
2022-12-17T21:52:50.211Z,99865.09
2022-12-17T21:54:52.864Z,99853.75
2022-12-17T21:56:55.445Z,99847.94
2022-12-17T21:59:00.356Z,99851.06
2022-12-17T22:01:19.109Z,99845.94
2022-12-17T22:03:22.265Z,99838.66
2022-12-17T22:05:24.886Z,99845.25
2022-12-17T22:07:32.028Z,99838.22
2022-12-17T22:09:42.502Z,99840.91
2022-12-17T22:12:20.205Z,99844.19
2022-12-17T22:14:22.858Z,99841.06
2022-12-17T22:16:27.354Z,99849.72
2022-12-17T22:18:29.931Z,99857.56
2022-12-17T22:20:32.525Z,99851.59
2022-12-17T22:22:35.215Z,99831.13
2022-12-17T22:24:38.047Z,99820.59
2022-12-17T22:26:40.795Z,99822.47
2022-12-17T22:28:48.580Z,99816.03
2022-12-17T22:31:09.897Z,99822.97
2022-12-17T22:33:38.308Z,99810.03
2022-12-17T22:37:34.843Z,99802.66
2022-12-17T22:40:50.083Z,99800.81
2022-12-17T22:44:35.586Z,99794.59
2022-12-17T22:44:37.804Z,99795.78
2022-12-17T22:45:27.605Z,99798.94
2022-12-17T22:47:30.228Z,99800.81
2022-12-17T22:49:32.854Z,99795.50
2022-12-17T22:51:39.032Z,99792.06
2022-12-17T22:53:43.403Z,99801.75
2022-12-17T22:55:46.221Z,99799.41
2022-12-17T22:57:48.880Z,99793.91
2022-12-17T22:59:51.513Z,99792.88
2022-12-17T23:01:54.321Z,99788.53
2022-12-17T23:03:58.829Z,99791.81
2022-12-17T23:06:13.629Z,99798.47
2022-12-17T23:08:16.254Z,99800.13
2022-12-17T23:10:20.091Z,99801.41
2022-12-17T23:12:41.240Z,99796.84
2022-12-17T23:14:43.925Z,99798.25
2022-12-17T23:16:46.580Z,99794.28
2022-12-17T23:18:50.897Z,99790.09
2022-12-17T23:20:53.587Z,99787.72
2022-12-17T23:22:57.011Z,99795.91
2022-12-17T23:24:59.626Z,99797.56
2022-12-17T23:27:02.195Z,99783.31
2022-12-17T23:29:08.061Z,99784.13
2022-12-17T23:31:13.213Z,99787.03
2022-12-17T23:33:15.914Z,99788.91
2022-12-17T23:35:18.755Z,99784.59
2022-12-17T23:37:21.281Z,99767.75
2022-12-17T23:39:24.021Z,99773.38
2022-12-17T23:41:29.304Z,99760.75
2022-12-17T23:43:33.072Z,99751.47
2022-12-17T23:45:35.594Z,99747.28
2022-12-17T23:47:39.095Z,99739.44
2022-12-17T23:49:41.651Z,99733.84
2022-12-17T23:51:44.233Z,99734.22
2022-12-17T23:53:47.625Z,99729.28
2022-12-17T23:55:51.143Z,99726.16
2022-12-17T23:57:56.766Z,99735.47
2022-12-17T23:59:59.385Z,99737.72
